»·PEaware :: N1399 KSAN-KPSP

N1399 :: KSAN-KPSP

FLIGHT INFORMATION

Flight Status: Arrived
Operator: Privately registered:
United States
More flights under this callsign
Pilot: David C. (16084)
Aircraft: CESSNA 310
(C310)
More flights by this aircraft type
Origin: KSAN San Diego Intl-Lindbergh
United States
Destination: KPSP Palm Springs Intl
United States
More flights between these airports :: More routes between these airports
Route: BRDR7 JLI V208 TRM
File this flight plan on PilotEdge
Remarks:
Altitude:
(Current/Filed)
9,000ft
Speed:
(Current/Filed)
268kts
Departed: 04-Jan-21 12:06 PM
Arrived: 04-Jan-21 12:49 PM
Distance/Time
Traveled:
74nm/0:42
Distance/Time
To Go:
Arrived

Flight Plot

Page will automatically refresh every two minutes.


Map Options




Map Legend


Flown Route
Filed Route
Departure Airport
Arrival Airport
Navaid (VOR, NDB)
Fix

Horizontal Profiles

Position Reports

Time Latitude Longitude Heading Altitude Ground
Speed
04-Jan-21 11:46 32.734384 -117.179925 105 19ft 0kts
04-Jan-21 11:47 32.734384 -117.179925 105 19ft 0kts
04-Jan-21 11:48 32.734384 -117.179925 105 19ft 0kts
04-Jan-21 11:49 32.734384 -117.179925 105 19ft 0kts
04-Jan-21 11:50 32.734384 -117.179925 105 19ft 0kts
04-Jan-21 11:51 32.734384 -117.179925 105 19ft 0kts
04-Jan-21 11:52 32.734384 -117.179925 105 19ft 0kts
04-Jan-21 11:53 32.734384 -117.179925 105 19ft 0kts
04-Jan-21 11:55 32.734384 -117.179925 105 19ft 0kts
04-Jan-21 11:55 32.734384 -117.179925 105 19ft 0kts
04-Jan-21 11:56 32.734384 -117.179925 105 19ft 0kts
04-Jan-21 11:57 32.734384 -117.179925 105 19ft 0kts
04-Jan-21 11:58 32.734239 -117.179274 107 19ft 0kts
04-Jan-21 11:59 32.734238 -117.179274 107 19ft 0kts
04-Jan-21 12:00 32.733844 -117.179311 202 19ft 7kts
04-Jan-21 12:01 32.733641 -117.179402 196 19ft 0kts
04-Jan-21 12:02 32.732666 -117.179747 194 19ft 13kts
04-Jan-21 12:03 32.730922 -117.175536 146 19ft 5kts
04-Jan-21 12:04 32.730757 -117.175408 146 19ft 5kts
04-Jan-21 12:05 32.733517 -117.189628 287 393ft 108kts
04-Jan-21 12:06 32.741558 -117.222499 281 2258ft 102kts
04-Jan-21 12:07 32.743772 -117.259314 273 3525ft 126kts
04-Jan-21 12:08 32.753294 -117.297398 289 4881ft 121kts
04-Jan-21 12:09 32.740544 -117.317361 135 5982ft 139kts
04-Jan-21 12:10 32.714421 -117.282973 134 7004ft 141kts
04-Jan-21 12:11 32.687625 -117.248320 134 7921ft 143kts
04-Jan-21 12:12 32.660699 -117.212918 134 8745ft 146kts
04-Jan-21 12:13 32.631640 -117.174513 135 9026ft 173kts
04-Jan-21 12:14 32.619411 -117.118454 96 9026ft 191kts
04-Jan-21 12:15 32.643704 -117.067858 35 9020ft 186kts
04-Jan-21 12:16 32.683671 -117.029761 36 9018ft 183kts
04-Jan-21 12:17 32.723096 -116.991718 36 9018ft 182kts
04-Jan-21 12:18 32.762397 -116.953721 37 9020ft 181kts
04-Jan-21 12:19 32.801550 -116.915819 37 9025ft 181kts
04-Jan-21 12:20 32.840815 -116.877752 37 8971ft 181kts
04-Jan-21 12:21 32.879603 -116.840122 37 8973ft 180kts
04-Jan-21 12:22 32.918360 -116.802471 37 8974ft 179kts
04-Jan-21 12:23 32.957155 -116.764741 37 8972ft 179kts
04-Jan-21 12:24 32.995862 -116.727055 37 8971ft 179kts
04-Jan-21 12:25 33.034611 -116.689278 36 8971ft 180kts
04-Jan-21 12:26 33.073380 -116.651440 36 8971ft 181kts
04-Jan-21 12:27 33.112530 -116.613181 36 8972ft 182kts
04-Jan-21 12:28 33.152462 -116.574692 33 8972ft 183kts
04-Jan-21 12:29 33.193952 -116.539228 32 8972ft 183kts
04-Jan-21 12:30 33.235348 -116.503473 32 8971ft 183kts
04-Jan-21 12:31 33.276731 -116.467464 32 8971ft 184kts
04-Jan-21 12:32 33.317655 -116.431162 33 8990ft 183kts
04-Jan-21 12:33 33.359160 -116.395624 32 8990ft 184kts
04-Jan-21 12:34 33.400495 -116.359636 32 8990ft 184kts
04-Jan-21 12:35 33.441949 -116.323412 33 8990ft 184kts
04-Jan-21 12:36 33.483403 -116.287135 33 8990ft 184kts
04-Jan-21 12:37 33.524932 -116.250744 33 8990ft 184kts
04-Jan-21 12:39 33.566798 -116.214008 33 8558ft 200kts
04-Jan-21 12:40 33.613055 -116.178286 9 6553ft 192kts
04-Jan-21 12:41 33.654784 -116.205629 305 4556ft 182kts
04-Jan-21 12:42 33.681956 -116.252456 305 3991ft 167kts
04-Jan-21 12:43 33.708781 -116.298645 305 3990ft 169kts
04-Jan-21 12:44 33.731645 -116.348528 297 3846ft 176kts
04-Jan-21 12:45 33.752228 -116.403410 293 3094ft 180kts
04-Jan-21 12:46 33.770617 -116.448815 305 1851ft 109kts
04-Jan-21 12:47 33.790549 -116.472991 321 1111ft 100kts
04-Jan-21 12:48 33.811239 -116.491235 323 662ft 88kts
04-Jan-21 12:49 33.827865 -116.506068 322 427ft 37kts
04-Jan-21 12:50 33.828738 -116.508097 251 430ft 0kts
04-Jan-21 12:51 33.828631 -116.511669 270 433ft 13kts
04-Jan-21 12:52 33.828143 -116.514636 5 436ft 9kts
04-Jan-21 12:53 33.828403 -116.514666 0 436ft 0kts
04-Jan-21 12:53 33.828403 -116.514666 353 436ft 0kts
04-Jan-21 12:54 33.828403 -116.514666 353 436ft 0kts

Navigation Log

Ident Type
Flight plan parsing failed, navigation log unavailable